createdAt,value
2018-05-15T00:00:32.493Z,7.97
2018-05-15T00:03:02.124Z,7.20
2018-05-15T00:05:31.798Z,7.43
2018-05-15T00:08:01.455Z,7.00
2018-05-15T00:10:31.067Z,6.87
2018-05-15T00:13:00.686Z,7.10
2018-05-15T00:15:30.329Z,7.37
2018-05-15T00:17:59.988Z,6.50
2018-05-15T00:20:29.624Z,7.13
2018-05-15T00:22:59.256Z,7.03
2018-05-15T00:25:28.899Z,7.07
2018-05-15T00:27:58.510Z,7.00
2018-05-15T00:30:28.127Z,7.67
2018-05-15T00:32:57.741Z,7.97
2018-05-15T00:35:27.425Z,7.13
2018-05-15T00:37:57.036Z,7.33
2018-05-15T00:40:26.724Z,7.90
2018-05-15T00:42:56.351Z,7.70
2018-05-15T00:45:25.976Z,7.93
2018-05-15T00:47:55.675Z,7.87
2018-05-15T00:50:25.499Z,7.40
2018-05-15T00:52:55.121Z,7.60
2018-05-15T00:55:35.954Z,8.40
2018-05-15T00:58:05.596Z,8.23
2018-05-15T01:00:35.264Z,8.57
2018-05-15T01:03:04.888Z,7.70
2018-05-15T01:05:34.513Z,8.13
2018-05-15T01:08:04.146Z,7.43
2018-05-15T01:10:33.478Z,7.60
2018-05-15T01:13:03.118Z,7.50
2018-05-15T01:15:32.749Z,7.60
2018-05-15T01:18:02.369Z,7.67
2018-05-15T01:20:32.033Z,8.00
2018-05-15T01:23:01.663Z,8.57
2018-05-15T01:25:31.347Z,8.33
2018-05-15T01:28:00.704Z,8.07
2018-05-15T01:30:30.321Z,8.07
2018-05-15T01:32:59.686Z,8.33
2018-05-15T01:35:29.313Z,8.17
2018-05-15T01:37:58.982Z,7.90
2018-05-15T01:40:28.642Z,7.97
2018-05-15T01:42:58.282Z,7.67
2018-05-15T01:45:27.899Z,7.87
2018-05-15T01:47:57.523Z,7.73
2018-05-15T01:50:27.194Z,7.63
2018-05-15T01:52:56.815Z,7.23
2018-05-15T01:55:26.428Z,7.97
2018-05-15T01:57:56.056Z,8.10
2018-05-15T02:00:25.682Z,8.20
2018-05-15T02:02:55.348Z,8.80
2018-05-15T02:05:24.988Z,7.90
2018-05-15T02:07:54.613Z,8.47
2018-05-15T02:10:24.251Z,8.40
2018-05-15T02:12:53.655Z,8.37
2018-05-15T02:15:23.354Z,8.20
2018-05-15T02:17:52.990Z,7.97
2018-05-15T02:20:22.600Z,8.43
2018-05-15T02:22:52.217Z,8.40
2018-05-15T02:25:21.827Z,8.10
2018-05-15T02:27:51.489Z,8.67
2018-05-15T02:30:20.863Z,8.53
2018-05-15T02:32:50.715Z,9.13
2018-05-15T02:35:20.334Z,8.30
2018-05-15T02:37:49.961Z,7.93
2018-05-15T02:40:19.600Z,8.47
2018-05-15T02:42:49.239Z,8.03
2018-05-15T02:45:18.903Z,8.57
2018-05-15T02:47:48.532Z,8.63
2018-05-15T02:50:18.152Z,8.83
2018-05-15T02:52:47.776Z,8.37
2018-05-15T02:55:17.404Z,8.50
2018-05-15T02:57:46.758Z,8.57
2018-05-15T03:00:16.387Z,9.23
2018-05-15T03:02:46.016Z,9.17
2018-05-15T03:05:15.630Z,8.73
2018-05-15T03:07:44.976Z,9.07
2018-05-15T03:10:14.646Z,8.80
2018-05-15T03:12:44.284Z,8.40
2018-05-15T03:15:13.929Z,8.73
2018-05-15T03:17:43.275Z,9.10
2018-05-15T03:20:12.893Z,9.27
2018-05-15T03:22:42.554Z,8.63
2018-05-15T03:25:12.175Z,8.87
2018-05-15T03:27:41.800Z,9.47
2018-05-15T03:30:11.433Z,8.83
2018-05-15T03:32:41.054Z,9.00
2018-05-15T03:35:10.711Z,8.97
2018-05-15T03:37:40.364Z,9.20
2018-05-15T03:40:09.991Z,9.07
2018-05-15T03:42:39.390Z,8.90
2018-05-15T03:45:08.727Z,9.13
2018-05-15T03:47:38.406Z,8.93
2018-05-15T03:50:08.032Z,9.27
2018-05-15T03:52:37.389Z,9.27
2018-05-15T03:55:06.679Z,8.73
2018-05-15T03:57:36.338Z,9.07
2018-05-15T04:00:05.446Z,9.47
2018-05-15T04:02:46.070Z,9.03
2018-05-15T04:05:26.668Z,9.00
2018-05-15T04:08:01.328Z,8.63
2018-05-15T04:10:30.716Z,9.50
2018-05-15T04:13:02.085Z,9.23
2018-05-15T04:15:31.474Z,9.33
2018-05-15T04:18:01.093Z,9.77
2018-05-15T04:20:30.199Z,9.53
2018-05-15T04:22:59.831Z,9.70
2018-05-15T04:25:29.468Z,9.43
2018-05-15T04:27:59.151Z,9.87
2018-05-15T04:30:28.783Z,8.73
2018-05-15T04:32:58.446Z,9.60
2018-05-15T04:35:28.071Z,9.77
2018-05-15T04:37:57.413Z,9.33
2018-05-15T04:40:27.070Z,10.07
2018-05-15T04:42:56.700Z,9.47
2018-05-15T04:45:26.360Z,8.97
2018-05-15T04:47:55.990Z,10.07
2018-05-15T04:50:25.624Z,9.43
2018-05-15T04:52:55.280Z,9.37
2018-05-15T04:55:24.908Z,9.50
2018-05-15T04:57:54.564Z,9.67
2018-05-15T05:00:24.195Z,9.60
2018-05-15T05:02:53.859Z,9.87
2018-05-15T05:05:23.555Z,9.30
2018-05-15T05:07:53.180Z,9.70
2018-05-15T05:10:22.597Z,8.33
2018-05-15T05:12:52.236Z,9.30
2018-05-15T05:15:21.873Z,8.30
2018-05-15T05:17:51.557Z,9.53
2018-05-15T05:20:21.189Z,8.80
2018-05-15T05:22:50.815Z,9.03
2018-05-15T05:25:20.451Z,9.07
2018-05-15T05:27:50.084Z,8.57
2018-05-15T05:30:19.769Z,8.80
2018-05-15T05:32:49.386Z,8.50
2018-05-15T05:35:19.007Z,7.87
2018-05-15T05:37:48.643Z,7.63
2018-05-15T05:40:18.264Z,7.83
2018-05-15T05:42:47.729Z,8.07
2018-05-15T05:45:17.360Z,8.07
2018-05-15T05:47:46.979Z,7.87
2018-05-15T05:50:17.159Z,7.35
2018-05-15T05:52:47.367Z,7.45
2018-05-15T05:55:17.603Z,6.72
2018-05-15T05:57:47.786Z,7.28
2018-05-15T06:00:18.017Z,7.12
2018-05-15T06:02:48.224Z,7.30
2018-05-15T06:05:18.461Z,7.18
2018-05-15T06:07:48.666Z,6.95
2018-05-15T06:10:18.568Z,7.50
2018-05-15T06:12:48.815Z,7.07
2018-05-15T06:15:19.092Z,6.35
2018-05-15T06:17:49.337Z,6.65
2018-05-15T06:20:22.272Z,6.43
2018-05-15T06:22:52.510Z,6.12
2018-05-15T06:25:22.710Z,5.97
2018-05-15T06:27:52.936Z,6.53
2018-05-15T06:30:22.878Z,6.47
2018-05-15T06:32:53.080Z,6.10
2018-05-15T06:35:23.314Z,6.60
2018-05-15T06:37:53.947Z,6.18
2018-05-15T06:40:24.188Z,5.90
2018-05-15T06:42:54.385Z,6.03
2018-05-15T06:45:24.632Z,6.43
2018-05-15T06:47:54.543Z,6.82
2018-05-15T06:50:24.740Z,6.22
2018-05-15T06:52:55.003Z,6.75
2018-05-15T06:55:25.198Z,7.00
2018-05-15T06:57:55.439Z,6.70
2018-05-15T07:00:25.719Z,6.40
2018-05-15T07:02:55.950Z,7.07
2018-05-15T07:05:26.151Z,6.80
2018-05-15T07:07:55.801Z,6.50
2018-05-15T07:10:26.036Z,6.90
2018-05-15T07:12:56.243Z,6.90
2018-05-15T07:15:26.465Z,7.35
2018-05-15T07:17:56.659Z,5.60
2018-05-15T07:20:26.851Z,4.93
2018-05-15T07:22:57.087Z,5.05
2018-05-15T07:25:27.287Z,5.70
2018-05-15T07:27:57.501Z,6.05
2018-05-15T07:30:27.702Z,6.00
2018-05-15T07:32:57.904Z,6.45
2018-05-15T07:35:28.148Z,6.28
2018-05-15T07:37:58.368Z,5.37
2018-05-15T07:40:28.584Z,5.50
2018-05-15T07:42:58.789Z,4.82
2018-05-15T07:45:29.048Z,5.00
2018-05-15T07:47:59.246Z,5.80
2018-05-15T07:50:29.509Z,5.35
2018-05-15T07:52:59.702Z,5.15
2018-05-15T07:55:29.916Z,5.40
2018-05-15T07:58:00.115Z,4.90
2018-05-15T08:00:30.341Z,4.72
2018-05-15T08:03:00.603Z,5.30
2018-05-15T08:05:30.805Z,5.22
2018-05-15T08:08:01.042Z,4.82
2018-05-15T08:10:31.247Z,5.00
2018-05-15T08:13:00.898Z,4.90
2018-05-15T08:15:30.538Z,5.57
2018-05-15T08:18:00.175Z,5.50
2018-05-15T08:20:29.847Z,4.97
2018-05-15T08:22:59.511Z,5.10
2018-05-15T08:25:29.144Z,4.57
2018-05-15T08:27:58.782Z,4.50
2018-05-15T08:30:28.411Z,4.50
2018-05-15T08:32:58.075Z,4.22
2018-05-15T08:35:27.692Z,4.30
2018-05-15T08:37:57.914Z,4.37
2018-05-15T08:40:28.143Z,4.47
2018-05-15T08:42:57.755Z,4.10
2018-05-15T08:45:27.473Z,4.17
2018-05-15T08:47:57.302Z,3.57
2018-05-15T08:50:26.931Z,3.30
2018-05-15T08:52:56.540Z,3.40
2018-05-15T08:55:26.198Z,3.03
2018-05-15T08:57:56.443Z,3.45
2018-05-15T09:00:26.060Z,3.37
2018-05-15T09:02:56.267Z,3.72
2018-05-15T09:05:26.464Z,3.00
2018-05-15T09:07:56.332Z,3.80
2018-05-15T09:10:25.995Z,3.70
2018-05-15T09:12:55.883Z,3.46
2018-05-15T09:15:25.556Z,4.00
2018-05-15T09:17:55.261Z,3.80
2018-05-15T09:20:24.883Z,3.40
2018-05-15T09:22:54.512Z,3.77
2018-05-15T09:25:24.139Z,4.10
2018-05-15T09:27:53.799Z,4.10
2018-05-15T09:30:23.423Z,4.30
2018-05-15T09:32:53.039Z,4.50
2018-05-15T09:35:22.651Z,3.90
2018-05-15T09:37:52.266Z,3.97
2018-05-15T09:40:21.940Z,5.00
2018-05-15T09:42:51.577Z,4.70
2018-05-15T09:45:21.184Z,5.07
2018-05-15T09:47:51.210Z,5.07
2018-05-15T09:50:20.843Z,4.33
2018-05-15T09:52:50.514Z,4.57
2018-05-15T09:55:20.168Z,4.20
2018-05-15T09:57:49.791Z,4.80
2018-05-15T10:00:24.931Z,4.90
2018-05-15T10:02:54.784Z,4.40
2018-05-15T10:05:24.445Z,5.07
2018-05-15T10:07:54.122Z,4.43
2018-05-15T10:10:23.936Z,4.20
2018-05-15T10:12:53.582Z,4.50
2018-05-15T10:15:23.755Z,4.97
2018-05-15T10:17:53.453Z,4.57
2018-05-15T10:20:23.066Z,4.20
2018-05-15T10:22:53.524Z,4.30
2018-05-15T10:25:23.144Z,4.33
2018-05-15T10:27:53.579Z,4.80
2018-05-15T10:30:23.338Z,4.40
2018-05-15T10:32:52.947Z,3.33
2018-05-15T10:35:22.610Z,2.50
2018-05-15T10:37:52.227Z,3.47
2018-05-15T10:40:21.856Z,3.60
2018-05-15T10:42:52.198Z,4.20
2018-05-15T10:45:21.574Z,4.20
2018-05-15T10:47:51.227Z,4.67
2018-05-15T10:50:20.844Z,4.20
2018-05-15T10:52:50.459Z,4.43
2018-05-15T10:55:20.076Z,4.10
2018-05-15T10:57:49.695Z,4.70
2018-05-15T11:00:19.372Z,4.80
2018-05-15T11:02:49.020Z,4.23
2018-05-15T11:05:18.652Z,4.50
2018-05-15T11:07:48.439Z,4.20
2018-05-15T11:10:18.062Z,4.67
2018-05-15T11:12:47.810Z,4.40
2018-05-15T11:15:17.663Z,3.87
2018-05-15T11:17:47.348Z,3.80
2018-05-15T11:20:28.006Z,3.13
2018-05-15T11:23:08.692Z,3.60
2018-05-15T11:25:38.032Z,3.77
2018-05-15T11:28:07.658Z,3.20
2018-05-15T11:30:37.353Z,3.80
2018-05-15T11:33:06.979Z,3.67
2018-05-15T11:35:36.671Z,4.00
2018-05-15T11:38:07.072Z,3.77
2018-05-15T11:40:36.696Z,3.67
2018-05-15T11:43:06.396Z,3.73
2018-05-15T11:45:36.011Z,4.10
2018-05-15T11:48:05.935Z,3.60
2018-05-15T11:50:36.396Z,3.67
2018-05-15T11:53:05.953Z,3.70
2018-05-15T11:55:35.481Z,3.27
2018-05-15T11:58:04.787Z,3.67
2018-05-15T12:00:34.570Z,4.13
2018-05-15T12:03:04.192Z,4.00
2018-05-15T12:05:33.821Z,4.77
2018-05-15T12:08:03.577Z,4.10
2018-05-15T12:10:33.337Z,5.00
2018-05-15T12:13:03.257Z,5.07
2018-05-15T12:15:32.874Z,4.83
2018-05-15T12:18:03.320Z,4.83
2018-05-15T12:20:32.986Z,5.03
2018-05-15T12:23:02.626Z,4.70
2018-05-15T12:25:32.244Z,5.47
2018-05-15T12:28:01.951Z,4.93
2018-05-15T12:30:31.743Z,5.70
2018-05-15T12:33:01.403Z,5.67
2018-05-15T12:35:31.047Z,6.17
2018-05-15T12:38:00.699Z,5.70
2018-05-15T12:40:30.327Z,6.80
2018-05-15T12:42:59.946Z,7.57
2018-05-15T12:45:29.616Z,7.90
2018-05-15T12:47:59.013Z,7.10
2018-05-15T12:50:28.868Z,6.43
2018-05-15T12:52:58.479Z,7.70
2018-05-15T12:55:28.101Z,8.40
2018-05-15T12:57:57.768Z,8.53
2018-05-15T13:00:27.405Z,10.40
2018-05-15T13:02:57.017Z,8.93
2018-05-15T13:05:26.649Z,9.40
2018-05-15T13:07:56.284Z,9.37
2018-05-15T13:10:25.722Z,10.07
2018-05-15T13:12:55.350Z,11.13
2018-05-15T13:15:24.974Z,10.70
2018-05-15T13:17:54.605Z,11.07
2018-05-15T13:20:24.276Z,11.13
2018-05-15T13:22:53.973Z,10.97
2018-05-15T13:25:23.639Z,11.30
2018-05-15T13:27:53.321Z,10.20
2018-05-15T13:30:23.696Z,9.60
2018-05-15T13:32:53.339Z,10.13
2018-05-15T13:35:23.057Z,10.60
2018-05-15T13:37:52.924Z,9.60
2018-05-15T13:40:22.613Z,10.07
2018-05-15T13:42:52.269Z,10.50
2018-05-15T13:45:21.652Z,11.90
2018-05-15T13:47:51.345Z,12.97
2018-05-15T13:50:20.970Z,13.97
2018-05-15T13:52:50.617Z,13.20
2018-05-15T13:55:20.259Z,13.27
2018-05-15T13:57:49.900Z,12.43
2018-05-15T14:00:19.567Z,12.47
2018-05-15T14:02:49.226Z,10.57
2018-05-15T14:05:18.843Z,9.93
2018-05-15T14:07:48.466Z,9.43
2018-05-15T14:10:18.119Z,11.20
2018-05-15T14:12:47.833Z,10.10
2018-05-15T14:15:17.450Z,9.97
2018-05-15T14:17:47.079Z,9.33
2018-05-15T14:20:16.726Z,9.33
2018-05-15T14:22:46.391Z,8.83
2018-05-15T14:25:16.070Z,8.00
2018-05-15T14:27:45.693Z,7.73
2018-05-15T14:30:15.326Z,7.70
2018-05-15T14:32:44.956Z,8.53
2018-05-15T14:35:14.584Z,7.93
2018-05-15T14:37:44.253Z,7.90
2018-05-15T14:40:13.884Z,7.63
2018-05-15T14:42:54.776Z,6.53
2018-05-15T14:45:25.164Z,6.00
2018-05-15T14:47:54.828Z,6.87
2018-05-15T14:50:24.476Z,5.67
2018-05-15T14:52:53.850Z,5.60
2018-05-15T14:55:23.248Z,5.43
2018-05-15T14:57:52.586Z,5.97
2018-05-15T15:00:22.208Z,6.40
2018-05-15T15:02:51.864Z,6.37
2018-05-15T15:05:21.489Z,6.20
2018-05-15T15:07:51.122Z,6.57
2018-05-15T15:10:20.796Z,6.43
2018-05-15T15:12:50.411Z,6.30
2018-05-15T15:15:20.027Z,6.80
2018-05-15T15:17:49.675Z,5.60
2018-05-15T15:20:19.303Z,5.77
2018-05-15T15:22:48.970Z,5.90
2018-05-15T15:25:18.605Z,5.67
2018-05-15T15:27:48.242Z,5.00
2018-05-15T15:30:17.855Z,5.23
2018-05-15T15:32:47.485Z,4.90
2018-05-15T15:35:17.142Z,5.50
2018-05-15T15:37:46.792Z,5.27
2018-05-15T15:40:16.414Z,5.00
2018-05-15T15:42:46.043Z,5.37
2018-05-15T15:45:16.428Z,5.07
2018-05-15T15:47:45.763Z,5.17
2018-05-15T15:50:15.400Z,5.40
2018-05-15T15:52:45.291Z,5.03
2018-05-15T15:55:14.915Z,4.93
2018-05-15T15:57:44.532Z,5.23
2018-05-15T16:00:14.156Z,5.10
2018-05-15T16:02:43.781Z,4.87
2018-05-15T16:05:13.462Z,5.10
2018-05-15T16:07:43.099Z,5.17
2018-05-15T16:10:12.811Z,6.23
2018-05-15T16:12:42.575Z,5.23
2018-05-15T16:15:12.195Z,5.23
2018-05-15T16:17:41.872Z,5.97
2018-05-15T16:20:11.499Z,5.90
2018-05-15T16:22:41.246Z,6.33
2018-05-15T16:25:11.440Z,6.63
2018-05-15T16:27:41.110Z,6.70
2018-05-15T16:30:10.781Z,5.50
2018-05-15T16:32:40.410Z,5.57
2018-05-15T16:35:10.060Z,5.03
2018-05-15T16:37:39.763Z,6.20
2018-05-15T16:40:09.552Z,8.67
2018-05-15T16:42:39.229Z,9.33
2018-05-15T16:45:08.892Z,12.10
2018-05-15T16:47:38.526Z,12.70
2018-05-15T16:50:08.184Z,16.60
2018-05-15T16:52:37.540Z,16.07
2018-05-15T16:55:07.227Z,16.67
2018-05-15T16:57:36.864Z,16.30
2018-05-15T17:00:06.549Z,15.30
2018-05-15T17:02:36.170Z,15.63
2018-05-15T17:05:05.790Z,15.87
2018-05-15T17:07:35.471Z,14.43
2018-05-15T17:10:05.102Z,13.50
2018-05-15T17:12:34.792Z,15.27
2018-05-15T17:15:04.414Z,14.03
2018-05-15T17:17:34.097Z,15.80
2018-05-15T17:20:03.790Z,16.13
2018-05-15T17:22:33.411Z,17.23
2018-05-15T17:25:03.062Z,14.30
2018-05-15T17:27:32.715Z,14.77
2018-05-15T17:30:02.366Z,16.17
2018-05-15T17:32:32.051Z,15.73
2018-05-15T17:35:01.693Z,15.90
2018-05-15T17:37:31.340Z,16.53
2018-05-15T17:40:00.991Z,17.60
2018-05-15T17:42:30.634Z,16.40
2018-05-15T17:45:00.358Z,15.20
2018-05-15T17:47:30.023Z,17.20
2018-05-15T17:49:59.868Z,15.17
2018-05-15T17:52:29.502Z,15.43
2018-05-15T17:54:59.144Z,16.50
2018-05-15T17:57:28.828Z,15.93
2018-05-15T17:59:58.525Z,16.97
2018-05-15T18:02:28.363Z,18.47
2018-05-15T18:04:58.012Z,17.17
2018-05-15T18:07:27.667Z,18.30
2018-05-15T18:09:57.399Z,19.73
2018-05-15T18:12:27.039Z,20.50
2018-05-15T18:14:56.687Z,23.07
2018-05-15T18:17:26.331Z,18.17
2018-05-15T18:19:55.975Z,16.97
2018-05-15T18:22:25.657Z,18.17
2018-05-15T18:24:55.309Z,16.17
2018-05-15T18:27:24.996Z,17.30
2018-05-15T18:29:54.802Z,19.60
2018-05-15T18:32:24.443Z,17.80
2018-05-15T18:34:54.129Z,17.03
2018-05-15T18:37:23.759Z,16.57
2018-05-15T18:39:53.386Z,18.37
2018-05-15T18:42:23.025Z,17.03
2018-05-15T18:44:52.690Z,17.13
2018-05-15T18:47:22.392Z,16.27
2018-05-15T18:49:52.019Z,19.97
2018-05-15T18:52:21.669Z,18.20
2018-05-15T18:54:51.316Z,21.83
2018-05-15T18:57:20.953Z,18.90
2018-05-15T18:59:50.629Z,18.63
2018-05-15T19:02:20.272Z,22.07
2018-05-15T19:04:49.924Z,37.37
2018-05-15T19:07:19.584Z,34.03
2018-05-15T19:09:50.250Z,22.83
2018-05-15T19:12:19.885Z,27.23
2018-05-15T19:14:49.529Z,21.43
2018-05-15T19:17:19.209Z,28.93
2018-05-15T19:19:48.840Z,24.13
2018-05-15T19:22:18.500Z,23.33
2018-05-15T19:24:48.124Z,22.07
2018-05-15T19:27:17.811Z,18.37
2018-05-15T19:29:47.668Z,18.20
2018-05-15T19:32:17.317Z,20.50
2018-05-15T19:34:52.296Z,21.50
2018-05-15T19:37:21.945Z,21.10
2018-05-15T19:39:51.357Z,20.23
2018-05-15T19:42:21.008Z,29.13
2018-05-15T19:44:50.654Z,25.90
2018-05-15T19:47:20.333Z,21.60
2018-05-15T19:49:49.967Z,20.57
2018-05-15T19:52:19.599Z,20.03
2018-05-15T19:54:49.240Z,19.60
2018-05-15T19:57:18.876Z,28.50
2018-05-15T19:59:48.563Z,33.80
2018-05-15T20:02:18.203Z,33.83
2018-05-15T20:04:47.843Z,33.60
2018-05-15T20:07:17.486Z,31.30
2018-05-15T20:09:47.136Z,32.37
2018-05-15T20:12:16.836Z,27.23
2018-05-15T20:14:46.470Z,24.80
2018-05-15T20:17:16.150Z,22.10
2018-05-15T20:19:45.770Z,29.30
2018-05-15T20:22:15.081Z,24.37
2018-05-15T20:24:44.757Z,25.43
2018-05-15T20:27:14.401Z,21.57
2018-05-15T20:29:44.067Z,24.00
2018-05-15T20:32:13.709Z,33.70
2018-05-15T20:34:43.347Z,29.87
2018-05-15T20:37:13.037Z,20.83
2018-05-15T20:39:42.667Z,20.13
2018-05-15T20:42:12.387Z,20.80
2018-05-15T20:44:42.310Z,23.93
2018-05-15T20:47:11.951Z,25.70
2018-05-15T20:49:41.633Z,29.13
2018-05-15T20:52:11.396Z,27.97
2018-05-15T20:54:41.196Z,24.10
2018-05-15T20:57:10.830Z,31.17
2018-05-15T20:59:40.481Z,26.87
2018-05-15T21:02:10.148Z,24.83
2018-05-15T21:04:39.794Z,23.37
2018-05-15T21:07:09.480Z,29.87
2018-05-15T21:09:39.128Z,32.57
2018-05-15T21:12:08.777Z,27.80
2018-05-15T21:14:38.484Z,25.20
2018-05-15T21:17:08.123Z,21.93
2018-05-15T21:19:37.772Z,22.13
2018-05-15T21:22:07.410Z,22.13
2018-05-15T21:24:37.063Z,21.07
2018-05-15T21:27:06.744Z,21.20
2018-05-15T21:29:36.375Z,20.93
2018-05-15T21:32:06.074Z,21.50
2018-05-15T21:34:35.717Z,20.77
2018-05-15T21:37:05.402Z,23.23
2018-05-15T21:39:35.033Z,21.97
2018-05-15T21:42:04.681Z,21.27
2018-05-15T21:44:34.371Z,22.93
2018-05-15T21:47:04.030Z,21.77
2018-05-15T21:49:33.664Z,22.20
2018-05-15T21:52:03.311Z,23.47
2018-05-15T21:54:32.975Z,22.53
2018-05-15T21:57:02.660Z,23.30
2018-05-15T21:59:32.299Z,23.53
2018-05-15T22:02:01.961Z,23.23
2018-05-15T22:04:31.586Z,22.87
2018-05-15T22:07:01.216Z,22.90
2018-05-15T22:09:31.118Z,23.60
2018-05-15T22:12:12.049Z,23.53
2018-05-15T22:14:58.610Z,23.67
2018-05-15T22:17:45.171Z,24.00
2018-05-15T22:20:32.049Z,23.90
2018-05-15T22:23:06.396Z,23.20
2018-05-15T22:25:35.506Z,23.93
2018-05-15T22:28:04.859Z,24.53
2018-05-15T22:30:34.227Z,25.70
2018-05-15T22:33:03.884Z,23.60
2018-05-15T22:35:33.511Z,24.00
2018-05-15T22:38:03.190Z,24.20
2018-05-15T22:40:32.824Z,25.50
2018-05-15T22:43:02.464Z,24.27
2018-05-15T22:45:32.113Z,23.20
2018-05-15T22:48:01.745Z,24.60
2018-05-15T22:50:31.421Z,23.57
2018-05-15T22:53:00.740Z,22.57
2018-05-15T22:55:30.390Z,23.20
2018-05-15T22:58:00.028Z,24.43
2018-05-15T23:00:29.655Z,24.63
2018-05-15T23:02:59.344Z,25.97
2018-05-15T23:05:28.976Z,25.00
2018-05-15T23:07:58.629Z,24.77
2018-05-15T23:10:28.258Z,25.43
2018-05-15T23:12:57.899Z,24.93
2018-05-15T23:15:27.579Z,24.50
2018-05-15T23:17:57.234Z,25.07
2018-05-15T23:20:26.871Z,24.50
2018-05-15T23:22:56.513Z,26.17
2018-05-15T23:25:26.269Z,27.00
2018-05-15T23:27:55.627Z,26.53
2018-05-15T23:30:25.268Z,27.03
2018-05-15T23:32:54.890Z,28.03
2018-05-15T23:35:24.522Z,28.27
2018-05-15T23:37:54.169Z,29.43
2018-05-15T23:40:23.852Z,28.83
2018-05-15T23:42:53.487Z,30.07
2018-05-15T23:45:23.124Z,29.53
2018-05-15T23:47:52.745Z,31.87
2018-05-15T23:50:22.368Z,32.57
2018-05-15T23:52:52.056Z,31.27
2018-05-15T23:55:21.719Z,31.57
2018-05-15T23:57:51.392Z,31.97
